createdAt,value
2018-08-03T00:01:00.533Z,102090.86
2018-08-03T00:04:04.853Z,102081.18
2018-08-03T00:07:09.248Z,102083.40
2018-08-03T00:10:13.567Z,102081.67
2018-08-03T00:13:17.981Z,102079.05
2018-08-03T00:16:22.274Z,102082.53
2018-08-03T00:19:27.761Z,102080.33
2018-08-03T00:22:32.082Z,102072.31
2018-08-03T00:25:36.394Z,102074.03
2018-08-03T00:28:40.703Z,102064.33
2018-08-03T00:31:45.037Z,102062.52
2018-08-03T00:34:49.321Z,102065.62
2018-08-03T00:37:53.659Z,102062.98
2018-08-03T00:40:57.926Z,102070.42
2018-08-03T00:44:02.193Z,102063.92
2018-08-03T00:47:06.497Z,102061.29
2018-08-03T00:50:10.825Z,102059.96
2018-08-03T00:53:15.171Z,102052.89
2018-08-03T00:56:19.479Z,102056.38
2018-08-03T00:59:23.604Z,102052.44
2018-08-03T01:02:27.908Z,102055.97
2018-08-03T01:05:32.186Z,102053.77
2018-08-03T01:08:36.547Z,102062.91
2018-08-03T01:11:40.768Z,102067.29
2018-08-03T01:14:45.046Z,102065.58
2018-08-03T01:17:49.411Z,102058.08
2018-08-03T01:20:53.556Z,102055.84
2018-08-03T01:23:57.962Z,102055.82
2018-08-03T01:27:02.253Z,102054.91
2018-08-03T01:30:07.371Z,102050.05
2018-08-03T01:33:11.737Z,102048.67
2018-08-03T01:36:16.002Z,102045.98
2018-08-03T01:39:20.361Z,102045.47
2018-08-03T01:42:24.633Z,102046.77
2018-08-03T01:45:28.905Z,102047.19
2018-08-03T01:48:33.209Z,102042.34
2018-08-03T01:51:37.497Z,102043.19
2018-08-03T01:54:41.778Z,102046.26
2018-08-03T01:57:46.076Z,102036.63
2018-08-03T02:00:50.398Z,102040.95
2018-08-03T02:03:54.823Z,102031.72
2018-08-03T02:06:59.159Z,102026.47
2018-08-03T02:10:03.458Z,102023.39
2018-08-03T02:13:07.972Z,102026.47
2018-08-03T02:16:12.321Z,102024.66
2018-08-03T02:19:16.662Z,102030.80
2018-08-03T02:22:20.977Z,102033.02
2018-08-03T02:25:25.230Z,102036.56
2018-08-03T02:28:29.489Z,102035.25
2018-08-03T02:31:33.563Z,102036.95
2018-08-03T02:34:37.812Z,102042.63
2018-08-03T02:37:42.171Z,102042.14
2018-08-03T02:40:46.556Z,102042.09
2018-08-03T02:43:50.894Z,102045.58
2018-08-03T02:46:55.316Z,102057.84
2018-08-03T02:49:59.735Z,102064.02
2018-08-03T02:53:04.057Z,102065.38
2018-08-03T02:56:08.378Z,102069.77
2018-08-03T02:59:12.708Z,102072.75
2018-08-03T03:02:17.012Z,102072.23
2018-08-03T03:05:21.338Z,102073.94
2018-08-03T03:08:25.667Z,102079.57
2018-08-03T03:11:29.929Z,102071.22
2018-08-03T03:14:34.165Z,102076.48
2018-08-03T03:17:38.555Z,102079.52
2018-08-03T03:20:42.810Z,102076.89
2018-08-03T03:23:47.188Z,102074.67
2018-08-03T03:26:51.448Z,102070.73
2018-08-03T03:29:55.677Z,102066.32
2018-08-03T03:33:00.040Z,102058.38
2018-08-03T03:36:04.368Z,102066.27
2018-08-03T03:39:12.251Z,102066.33
2018-08-03T03:42:16.581Z,102072.52
2018-08-03T03:45:20.912Z,102069.47
2018-08-03T03:48:25.232Z,102069.44
2018-08-03T03:51:29.533Z,102072.06
2018-08-03T03:54:33.856Z,102069.88
2018-08-03T03:57:38.278Z,102065.50
2018-08-03T04:00:42.595Z,102070.27
2018-08-03T04:03:46.960Z,102073.30
2018-08-03T04:06:51.254Z,102068.02
2018-08-03T04:09:55.664Z,102063.61
2018-08-03T04:13:00.093Z,102059.23
2018-08-03T04:16:04.556Z,102062.27
2018-08-03T04:19:08.974Z,102061.83
2018-08-03T04:22:13.647Z,102066.67
2018-08-03T04:25:17.905Z,102070.67
2018-08-03T04:28:22.215Z,102071.66
2018-08-03T04:31:26.567Z,102074.41
2018-08-03T04:34:30.828Z,102063.94
2018-08-03T04:37:35.175Z,102072.34
2018-08-03T04:40:39.503Z,102071.11
2018-08-03T04:43:43.851Z,102071.16
2018-08-03T04:46:48.138Z,102064.66
2018-08-03T04:49:52.485Z,102066.52
2018-08-03T04:52:56.803Z,102067.91
2018-08-03T04:56:01.544Z,102074.13
2018-08-03T04:59:05.860Z,102070.70
2018-08-03T05:02:10.579Z,102069.93
2018-08-03T05:05:14.918Z,102081.39
2018-08-03T05:08:19.251Z,102083.22
2018-08-03T05:11:23.541Z,102083.75
2018-08-03T05:14:27.888Z,102078.59
2018-08-03T05:17:32.177Z,102081.72
2018-08-03T05:20:36.534Z,102077.83
2018-08-03T05:23:40.850Z,102071.71
2018-08-03T05:26:45.158Z,102075.72
2018-08-03T05:29:49.458Z,102074.42
2018-08-03T05:32:53.880Z,102071.39
2018-08-03T05:35:58.240Z,102063.11
2018-08-03T05:39:02.913Z,102054.78
2018-08-03T05:42:07.252Z,102060.03
2018-08-03T05:45:11.584Z,102067.50
2018-08-03T05:48:15.739Z,102071.02
2018-08-03T05:51:19.979Z,102068.84
2018-08-03T05:54:24.223Z,102067.04
2018-08-03T05:57:28.560Z,102073.19
2018-08-03T06:00:32.979Z,102069.70
2018-08-03T06:03:37.221Z,102061.31
2018-08-03T06:06:41.509Z,102061.73
2018-08-03T06:09:45.808Z,102055.96
2018-08-03T06:12:52.097Z,102051.11
2018-08-03T06:15:56.419Z,102056.80
2018-08-03T06:19:00.739Z,102056.71
2018-08-03T06:22:05.089Z,102059.77
2018-08-03T06:25:10.037Z,102065.89
2018-08-03T06:28:14.319Z,102061.89
2018-08-03T06:31:18.646Z,102061.40
2018-08-03T06:34:23.049Z,102056.45
2018-08-03T06:37:27.397Z,102053.75
2018-08-03T06:40:31.686Z,102055.02
2018-08-03T06:43:35.740Z,102057.13
2018-08-03T06:46:40.222Z,102046.02
2018-08-03T06:49:44.548Z,102043.30
2018-08-03T06:52:48.855Z,102045.84
2018-08-03T06:55:53.201Z,102044.81
2018-08-03T06:58:57.601Z,102048.62
2018-08-03T07:02:01.922Z,102048.41
2018-08-03T07:05:06.302Z,102041.19
2018-08-03T07:08:10.628Z,102037.11
2018-08-03T07:11:14.863Z,102043.16
2018-08-03T07:14:19.238Z,102041.64
2018-08-03T07:17:30.026Z,102044.17
2018-08-03T07:20:34.349Z,102043.15
2018-08-03T07:23:38.728Z,102041.31
2018-08-03T07:26:43.068Z,102034.44
2018-08-03T07:29:47.306Z,102019.24
2018-08-03T07:32:51.655Z,102021.36
2018-08-03T07:35:56.003Z,102030.05
2018-08-03T07:39:00.333Z,102018.38
2018-08-03T07:42:04.616Z,102021.73
2018-08-03T07:45:08.926Z,102025.47
2018-08-03T07:48:13.254Z,102028.96
2018-08-03T07:51:17.589Z,102017.21
2018-08-03T07:54:21.881Z,102010.14
2018-08-03T07:57:26.244Z,102012.20
2018-08-03T08:00:30.702Z,102019.98
2018-08-03T08:03:34.968Z,102021.16
2018-08-03T08:06:39.400Z,102017.54
2018-08-03T08:09:43.788Z,102019.27
2018-08-03T08:12:50.154Z,102018.80
2018-08-03T08:15:54.527Z,102016.78
2018-08-03T08:18:58.948Z,102015.17
2018-08-03T08:22:03.340Z,102016.57
2018-08-03T08:25:07.956Z,102013.91
2018-08-03T08:28:12.383Z,102012.46
2018-08-03T08:31:16.672Z,102011.91
2018-08-03T08:34:21.054Z,102010.06
2018-08-03T08:37:25.499Z,102012.57
2018-08-03T08:40:29.995Z,102009.33
2018-08-03T08:43:34.351Z,102004.56
2018-08-03T08:46:38.633Z,102004.98
2018-08-03T08:49:42.913Z,102007.38
2018-08-03T08:52:47.234Z,102005.45
2018-08-03T08:55:51.552Z,102007.73
2018-08-03T08:58:55.817Z,102007.83
2018-08-03T09:02:00.715Z,101999.54
2018-08-03T09:05:05.297Z,101997.80
2018-08-03T09:08:09.691Z,101994.00
2018-08-03T09:11:13.958Z,101993.74
2018-08-03T09:14:18.562Z,101998.02
2018-08-03T09:17:22.975Z,101994.62
2018-08-03T09:20:27.314Z,101994.07
2018-08-03T09:23:31.698Z,101996.80
2018-08-03T09:26:36.472Z,101995.54
2018-08-03T09:29:40.821Z,101988.23
2018-08-03T09:32:45.236Z,101985.42
2018-08-03T09:35:49.710Z,101984.42
2018-08-03T09:38:54.111Z,101983.23
2018-08-03T09:41:58.365Z,101973.94
2018-08-03T09:45:02.749Z,101965.94
2018-08-03T09:48:07.080Z,101973.23
2018-08-03T09:51:11.396Z,101973.36
2018-08-03T09:54:15.654Z,101973.40
2018-08-03T09:57:19.923Z,101970.56
2018-08-03T10:00:29.428Z,101971.55
2018-08-03T10:03:33.735Z,101966.36
2018-08-03T10:06:38.109Z,101962.56
2018-08-03T10:09:42.372Z,101958.56
2018-08-03T10:12:46.681Z,101952.28
2018-08-03T10:15:50.922Z,101956.31
2018-08-03T10:18:55.237Z,101949.50
2018-08-03T10:21:59.583Z,101941.60
2018-08-03T10:25:03.924Z,101945.65
2018-08-03T10:28:08.180Z,101947.27
2018-08-03T10:31:12.710Z,101947.68
2018-08-03T10:34:17.046Z,101944.31
2018-08-03T10:37:21.406Z,101936.77
2018-08-03T10:40:25.800Z,101933.34
2018-08-03T10:43:30.169Z,101940.38
2018-08-03T10:46:34.577Z,101934.84
2018-08-03T10:49:38.985Z,101931.72
2018-08-03T10:52:43.341Z,101931.09
2018-08-03T10:55:47.626Z,101921.60
2018-08-03T10:58:52.397Z,101929.77
2018-08-03T11:01:56.782Z,101925.28
2018-08-03T11:05:01.077Z,101921.27
2018-08-03T11:08:05.393Z,101922.69
2018-08-03T11:11:09.698Z,101918.67
2018-08-03T11:14:14.035Z,101917.98
2018-08-03T11:17:18.464Z,101916.34
2018-08-03T11:20:22.760Z,101908.59
2018-08-03T11:23:27.086Z,101908.32
2018-08-03T11:26:31.501Z,101903.06
2018-08-03T11:29:35.878Z,101913.50
2018-08-03T11:32:40.228Z,101906.39
2018-08-03T11:35:44.968Z,101909.92
2018-08-03T11:38:49.291Z,101907.63
2018-08-03T11:41:53.618Z,101903.84
2018-08-03T11:44:57.954Z,101902.67
2018-08-03T11:48:02.272Z,101902.88
2018-08-03T11:51:06.836Z,101899.26
2018-08-03T11:54:11.490Z,101898.22
2018-08-03T11:57:15.817Z,101896.09
2018-08-03T12:00:20.520Z,101891.75
2018-08-03T12:03:24.876Z,101894.46
2018-08-03T12:06:29.289Z,101884.16
2018-08-03T12:09:33.517Z,101884.34
2018-08-03T12:12:37.925Z,101883.06
2018-08-03T12:15:42.184Z,101889.61
2018-08-03T12:18:46.513Z,101878.28
2018-08-03T12:21:51.170Z,101877.70
2018-08-03T12:24:55.533Z,101869.89
2018-08-03T12:27:59.799Z,101875.92
2018-08-03T12:31:04.192Z,101872.25
2018-08-03T12:34:08.614Z,101874.25
2018-08-03T12:37:12.941Z,101872.16
2018-08-03T12:40:17.341Z,101874.78
2018-08-03T12:43:21.733Z,101866.08
2018-08-03T12:46:25.979Z,101860.19
2018-08-03T12:49:31.237Z,101861.47
2018-08-03T12:52:35.855Z,101866.36
2018-08-03T12:55:40.177Z,101859.66
2018-08-03T12:58:44.469Z,101862.34
2018-08-03T13:01:48.801Z,101844.94
2018-08-03T13:04:53.169Z,101848.22
2018-08-03T13:07:57.639Z,101847.48
2018-08-03T13:11:01.869Z,101844.63
2018-08-03T13:14:06.229Z,101842.91
2018-08-03T13:17:10.592Z,101840.73
2018-08-03T13:20:14.907Z,101844.88
2018-08-03T13:23:19.213Z,101835.76
2018-08-03T13:26:23.911Z,101842.70
2018-08-03T13:29:28.239Z,101834.39
2018-08-03T13:32:32.464Z,101836.86
2018-08-03T13:35:36.893Z,101831.00
2018-08-03T13:38:41.228Z,101832.45
2018-08-03T13:41:45.449Z,101829.56
2018-08-03T13:44:49.800Z,101825.18
2018-08-03T13:47:54.127Z,101824.47
2018-08-03T13:50:58.419Z,101820.63
2018-08-03T13:54:02.776Z,101811.25
2018-08-03T13:57:07.184Z,101809.49
2018-08-03T14:00:13.184Z,101807.10
2018-08-03T14:03:17.522Z,101802.86
2018-08-03T14:06:21.857Z,101805.16
2018-08-03T14:09:26.184Z,101803.45
2018-08-03T14:12:31.542Z,101800.02
2018-08-03T14:15:36.698Z,101805.23
2018-08-03T14:18:40.961Z,101792.17
2018-08-03T14:21:45.307Z,101797.02
2018-08-03T14:24:49.567Z,101795.36
2018-08-03T14:27:53.968Z,101789.84
2018-08-03T14:30:58.402Z,101783.39
2018-08-03T14:34:02.839Z,101779.20
2018-08-03T14:37:07.227Z,101791.34
2018-08-03T14:40:11.549Z,101785.20
2018-08-03T14:43:15.859Z,101782.17
2018-08-03T14:46:20.158Z,101777.80
2018-08-03T14:49:24.859Z,101778.41
2018-08-03T14:52:29.212Z,101777.44
2018-08-03T14:55:33.570Z,101776.26
2018-08-03T14:58:37.905Z,101776.42
2018-08-03T15:01:42.201Z,101775.34
2018-08-03T15:04:46.505Z,101769.59
2018-08-03T15:07:50.863Z,101774.31
2018-08-03T15:10:55.260Z,101771.41
2018-08-03T15:13:59.671Z,101768.02
2018-08-03T15:17:03.980Z,101763.47
2018-08-03T15:20:09.422Z,101757.88
2018-08-03T15:23:13.763Z,101750.12
2018-08-03T15:26:18.025Z,101756.67
2018-08-03T15:29:22.381Z,101753.23
2018-08-03T15:32:26.708Z,101753.25
2018-08-03T15:35:31.152Z,101747.27
2018-08-03T15:38:35.471Z,101745.84
2018-08-03T15:41:40.638Z,101740.45
2018-08-03T15:44:44.905Z,101739.41
2018-08-03T15:47:49.251Z,101735.44
2018-08-03T15:50:53.564Z,101740.22
2018-08-03T15:53:57.893Z,101737.30
2018-08-03T15:57:02.196Z,101732.75
2018-08-03T16:00:08.473Z,101732.45
2018-08-03T16:03:12.687Z,101733.20
2018-08-03T16:06:16.994Z,101731.86
2018-08-03T16:09:21.300Z,101732.52
2018-08-03T16:12:25.635Z,101737.22
2018-08-03T16:15:30.289Z,101734.91
2018-08-03T16:18:34.598Z,101727.26
2018-08-03T16:21:38.912Z,101726.55
2018-08-03T16:24:43.254Z,101721.06
2018-08-03T16:27:47.521Z,101720.38
2018-08-03T16:30:51.856Z,101722.77
2018-08-03T16:33:56.327Z,101717.91
2018-08-03T16:37:00.703Z,101722.50
2018-08-03T16:40:05.280Z,101721.83
2018-08-03T16:43:09.574Z,101720.80
2018-08-03T16:46:13.970Z,101719.34
2018-08-03T16:49:18.224Z,101721.30
2018-08-03T16:52:22.597Z,101724.81
2018-08-03T16:55:26.960Z,101725.99
2018-08-03T16:58:31.272Z,101718.75
2018-08-03T17:01:35.576Z,101721.46
2018-08-03T17:04:39.900Z,101722.73
2018-08-03T17:07:44.414Z,101713.29
2018-08-03T17:10:48.677Z,101718.85
2018-08-03T17:13:53.064Z,101712.11
2018-08-03T17:16:57.328Z,101717.80
2018-08-03T17:20:01.605Z,101712.00
2018-08-03T17:23:05.955Z,101714.03
2018-08-03T17:26:10.306Z,101709.03
2018-08-03T17:29:14.355Z,101708.77
2018-08-03T17:32:18.710Z,101712.50
2018-08-03T17:35:29.766Z,101715.20
2018-08-03T17:38:34.200Z,101720.09
2018-08-03T17:41:38.774Z,101718.38
2018-08-03T17:44:44.370Z,101715.98
2018-08-03T17:47:50.035Z,101714.59
2018-08-03T17:50:55.510Z,101723.59
2018-08-03T17:54:00.977Z,101720.61
2018-08-03T17:57:06.311Z,101716.94
2018-08-03T18:00:11.096Z,101719.50
2018-08-03T18:03:15.526Z,101715.22
2018-08-03T18:06:20.179Z,101719.75
2018-08-03T18:09:25.653Z,101721.10
2018-08-03T18:12:30.183Z,101718.70
2018-08-03T18:15:34.512Z,101718.98
2018-08-03T18:18:38.970Z,101715.93
2018-08-03T18:21:43.383Z,101714.16
2018-08-03T18:24:47.814Z,101718.10
2018-08-03T18:27:52.108Z,101718.34
2018-08-03T18:31:03.292Z,101719.61
2018-08-03T18:34:07.701Z,101714.65
2018-08-03T18:37:12.014Z,101719.30
2018-08-03T18:40:16.366Z,101714.36
2018-08-03T18:43:21.047Z,101720.44
2018-08-03T18:46:25.390Z,101715.80
2018-08-03T18:49:29.752Z,101720.22
2018-08-03T18:52:34.096Z,101720.95
2018-08-03T18:55:38.434Z,101721.09
2018-08-03T18:58:42.752Z,101715.95
2018-08-03T19:01:47.187Z,101716.47
2018-08-03T19:04:51.514Z,101718.95
2018-08-03T19:07:55.941Z,101716.95
2018-08-03T19:11:00.208Z,101714.69
2018-08-03T19:14:04.504Z,101720.19
2018-08-03T19:17:08.865Z,101725.66
2018-08-03T19:20:13.133Z,101725.08
2018-08-03T19:23:17.549Z,101731.39
2018-08-03T19:26:21.953Z,101735.11
2018-08-03T19:29:26.370Z,101740.59
2018-08-03T19:32:30.677Z,101738.09
2018-08-03T19:35:35.020Z,101746.33
2018-08-03T19:38:39.444Z,101737.77
2018-08-03T19:41:43.884Z,101742.34
2018-08-03T19:44:48.266Z,101740.30
2018-08-03T19:47:52.605Z,101740.78
2018-08-03T19:50:56.929Z,101748.70
2018-08-03T19:54:01.371Z,101752.83
2018-08-03T19:57:05.790Z,101752.18
2018-08-03T20:00:12.376Z,101753.25
2018-08-03T20:03:16.869Z,101752.45
2018-08-03T20:06:21.601Z,101758.02
2018-08-03T20:09:26.045Z,101757.39
2018-08-03T20:12:30.429Z,101755.73
2018-08-03T20:15:34.965Z,101759.33
2018-08-03T20:18:39.514Z,101758.97
2018-08-03T20:21:44.013Z,101760.70
2018-08-03T20:24:48.346Z,101763.41
2018-08-03T20:27:53.393Z,101765.30
2018-08-03T20:30:57.788Z,101772.00
2018-08-03T20:34:02.113Z,101766.80
2018-08-03T20:37:06.684Z,101763.45
2018-08-03T20:40:11.489Z,101766.64
2018-08-03T20:43:15.883Z,101760.08
2018-08-03T20:46:20.229Z,101765.42
2018-08-03T20:49:24.911Z,101759.72
2018-08-03T20:52:29.255Z,101763.33
2018-08-03T20:55:33.677Z,101755.99
2018-08-03T20:58:37.989Z,101750.71
2018-08-03T21:01:42.432Z,101754.31
2018-08-03T21:04:46.775Z,101751.30
2018-08-03T21:07:51.280Z,101749.57
2018-08-03T21:10:56.617Z,101745.65
2018-08-03T21:14:00.896Z,101750.94
2018-08-03T21:17:05.083Z,101738.68
2018-08-03T21:20:09.926Z,101741.82
2018-08-03T21:23:14.293Z,101744.05
2018-08-03T21:26:18.730Z,101745.00
2018-08-03T21:29:23.241Z,101744.14
2018-08-03T21:32:27.699Z,101736.25
2018-08-03T21:35:32.062Z,101727.50
2018-08-03T21:38:36.403Z,101721.39
2018-08-03T21:41:40.663Z,101716.22
2018-08-03T21:44:44.998Z,101711.87
2018-08-03T21:47:49.316Z,101711.92
2018-08-03T21:50:53.849Z,101708.03
2018-08-03T21:53:58.101Z,101708.06
2018-08-03T21:57:02.508Z,101705.05
2018-08-03T22:00:12.250Z,101699.27
2018-08-03T22:03:16.521Z,101695.23
2018-08-03T22:06:20.822Z,101694.30
2018-08-03T22:09:25.124Z,101693.84
2018-08-03T22:12:29.365Z,101700.89
2018-08-03T22:15:33.643Z,101698.67
2018-08-03T22:18:37.906Z,101698.25
2018-08-03T22:21:42.183Z,101702.18
2018-08-03T22:24:46.587Z,101706.18
2018-08-03T22:27:50.900Z,101705.31
2018-08-03T22:30:55.362Z,101712.30
2018-08-03T22:33:59.631Z,101707.02
2018-08-03T22:37:03.946Z,101712.75
2018-08-03T22:40:08.359Z,101708.78
2018-08-03T22:43:12.741Z,101702.22
2018-08-03T22:46:17.065Z,101700.94
2018-08-03T22:49:21.381Z,101698.37
2018-08-03T22:52:25.718Z,101695.34
2018-08-03T22:55:29.967Z,101693.65
2018-08-03T22:58:34.462Z,101696.36
2018-08-03T23:01:38.727Z,101691.11
2018-08-03T23:04:43.010Z,101699.00
2018-08-03T23:07:47.385Z,101716.16
2018-08-03T23:10:51.692Z,101714.84
2018-08-03T23:13:56.058Z,101704.28
2018-08-03T23:17:00.368Z,101701.64
2018-08-03T23:20:05.068Z,101691.04
2018-08-03T23:23:09.207Z,101694.94
2018-08-03T23:26:13.592Z,101697.95
2018-08-03T23:29:17.917Z,101698.37
2018-08-03T23:32:22.076Z,101697.05
2018-08-03T23:35:26.464Z,101704.97
2018-08-03T23:38:30.473Z,101717.24
2018-08-03T23:41:34.812Z,101710.64
2018-08-03T23:44:39.223Z,101712.38
2018-08-03T23:47:43.537Z,101716.79
2018-08-03T23:50:47.827Z,101717.23
2018-08-03T23:53:52.160Z,101714.59
2018-08-03T23:56:56.494Z,101709.77
